sensor_id;sensor_type;location;lat;lon;timestamp;pressure;altitude;pressure_sealevel;temperature;humidity
57232;BME280;43488;46.934;8.276;2022-10-13T00:01:20;97032.59;;;12.39;89.86
57232;BME280;43488;46.934;8.276;2022-10-13T00:03:49;97044.75;;;12.40;89.95
57232;BME280;43488;46.934;8.276;2022-10-13T00:06:20;97047.81;;;12.44;89.94
57232;BME280;43488;46.934;8.276;2022-10-13T00:08:48;97055.31;;;12.40;89.25
57232;BME280;43488;46.934;8.276;2022-10-13T00:11:24;97054.09;;;12.43;89.40
57232;BME280;43488;46.934;8.276;2022-10-13T00:13:59;97056.56;;;12.44;88.89
57232;BME280;43488;46.934;8.276;2022-10-13T00:16:28;97052.91;;;12.45;88.21
57232;BME280;43488;46.934;8.276;2022-10-13T00:18:56;97054.31;;;12.41;87.56
57232;BME280;43488;46.934;8.276;2022-10-13T00:21:25;97054.50;;;12.33;87.50
57232;BME280;43488;46.934;8.276;2022-10-13T00:23:54;97052.88;;;12.32;88.44
57232;BME280;43488;46.934;8.276;2022-10-13T00:26:24;97055.16;;;12.35;88.79
57232;BME280;43488;46.934;8.276;2022-10-13T00:28:53;97057.38;;;12.32;89.00
57232;BME280;43488;46.934;8.276;2022-10-13T00:31:28;97067.13;;;12.31;89.58
57232;BME280;43488;46.934;8.276;2022-10-13T00:33:58;97072.59;;;12.30;90.65
57232;BME280;43488;46.934;8.276;2022-10-13T00:36:26;97070.56;;;12.32;90.54
57232;BME280;43488;46.934;8.276;2022-10-13T00:38:55;97075.63;;;12.33;90.22
57232;BME280;43488;46.934;8.276;2022-10-13T00:41:23;97083.56;;;12.33;90.63
57232;BME280;43488;46.934;8.276;2022-10-13T00:43:54;97080.53;;;12.30;90.72
57232;BME280;43488;46.934;8.276;2022-10-13T00:46:28;97077.50;;;12.26;90.70
57232;BME280;43488;46.934;8.276;2022-10-13T00:49:11;97075.25;;;12.30;90.19
57232;BME280;43488;46.934;8.276;2022-10-13T00:51:45;97074.84;;;12.26;91.18
57232;BME280;43488;46.934;8.276;2022-10-13T00:54:19;97076.25;;;12.22;91.55
57232;BME280;43488;46.934;8.276;2022-10-13T00:56:47;97075.22;;;12.23;91.89
57232;BME280;43488;46.934;8.276;2022-10-13T00:59:24;97071.56;;;12.24;91.48
57232;BME280;43488;46.934;8.276;2022-10-13T01:01:57;97074.84;;;12.13;90.77
57232;BME280;43488;46.934;8.276;2022-10-13T01:04:33;97074.84;;;12.00;91.05
57232;BME280;43488;46.934;8.276;2022-10-13T01:07:05;97067.31;;;11.83;92.81
57232;BME280;43488;46.934;8.276;2022-10-13T01:09:33;97068.75;;;11.92;92.27
57232;BME280;43488;46.934;8.276;2022-10-13T01:12:36;97070.38;;;12.00;91.53
57232;BME280;43488;46.934;8.276;2022-10-13T01:15:37;97060.22;;;12.04;91.61
57232;BME280;43488;46.934;8.276;2022-10-13T01:18:35;97053.72;;;12.06;90.67
57232;BME280;43488;46.934;8.276;2022-10-13T01:21:07;97056.75;;;11.96;90.82
57232;BME280;43488;46.934;8.276;2022-10-13T01:24:14;97052.09;;;11.92;91.33
57232;BME280;43488;46.934;8.276;2022-10-13T01:33:13;97044.59;;;11.89;88.75
57232;BME280;43488;46.934;8.276;2022-10-13T01:35:59;97053.09;;;11.84;89.62
57232;BME280;43488;46.934;8.276;2022-10-13T01:41:24;97051.28;;;11.85;88.73
57232;BME280;43488;46.934;8.276;2022-10-13T01:44:26;97046.56;;;11.74;88.24
57232;BME280;43488;46.934;8.276;2022-10-13T01:46:55;97049.41;;;11.65;88.54
57232;BME280;43488;46.934;8.276;2022-10-13T01:49:27;97050.81;;;11.68;88.49
57232;BME280;43488;46.934;8.276;2022-10-13T01:52:02;97039.06;;;11.64;88.66
57232;BME280;43488;46.934;8.276;2022-10-13T01:54:32;97044.53;;;11.69;88.63
57232;BME280;43488;46.934;8.276;2022-10-13T01:57:00;97033.38;;;11.54;91.00
57232;BME280;43488;46.934;8.276;2022-10-13T01:59:29;97039.00;;;11.51;91.27
57232;BME280;43488;46.934;8.276;2022-10-13T02:02:33;97041.66;;;11.51;90.66
57232;BME280;43488;46.934;8.276;2022-10-13T02:05:24;97040.66;;;11.58;90.81
57232;BME280;43488;46.934;8.276;2022-10-13T02:08:07;97043.72;;;11.62;90.12
57232;BME280;43488;46.934;8.276;2022-10-13T02:10:58;97040.44;;;11.60;91.59
57232;BME280;43488;46.934;8.276;2022-10-13T02:13:28;97043.69;;;11.55;90.94
57232;BME280;43488;46.934;8.276;2022-10-13T02:15:59;97037.00;;;11.59;91.04
57232;BME280;43488;46.934;8.276;2022-10-13T02:18:33;97042.06;;;11.61;90.60
57232;BME280;43488;46.934;8.276;2022-10-13T02:21:03;97044.72;;;11.61;90.27
57232;BME280;43488;46.934;8.276;2022-10-13T02:23:30;97040.06;;;11.63;90.03
57232;BME280;43488;46.934;8.276;2022-10-13T02:25:58;97035.81;;;11.62;89.24
57232;BME280;43488;46.934;8.276;2022-10-13T02:28:27;97037.41;;;11.56;88.63
57232;BME280;43488;46.934;8.276;2022-10-13T02:30:56;97042.91;;;11.55;89.50
57232;BME280;43488;46.934;8.276;2022-10-13T02:33:23;97042.09;;;11.54;89.52
57232;BME280;43488;46.934;8.276;2022-10-13T02:35:50;97040.63;;;11.52;89.79
57232;BME280;43488;46.934;8.276;2022-10-13T02:38:17;97041.19;;;11.27;90.38
57232;BME280;43488;46.934;8.276;2022-10-13T02:40:45;97041.34;;;11.13;90.84
57232;BME280;43488;46.934;8.276;2022-10-13T02:43:12;97045.19;;;11.10;90.95
57232;BME280;43488;46.934;8.276;2022-10-13T02:45:40;97045.81;;;11.12;91.30
57232;BME280;43488;46.934;8.276;2022-10-13T02:48:07;97045.44;;;11.22;91.16
57232;BME280;43488;46.934;8.276;2022-10-13T02:50:34;97044.63;;;11.21;91.78
57232;BME280;43488;46.934;8.276;2022-10-13T02:53:02;97054.75;;;11.24;92.29
57232;BME280;43488;46.934;8.276;2022-10-13T02:55:29;97043.84;;;11.27;92.27
57232;BME280;43488;46.934;8.276;2022-10-13T02:57:56;97045.06;;;11.25;92.77
57232;BME280;43488;46.934;8.276;2022-10-13T03:00:24;97045.66;;;11.27;93.10
57232;BME280;43488;46.934;8.276;2022-10-13T03:02:51;97044.84;;;11.33;93.54
57232;BME280;43488;46.934;8.276;2022-10-13T03:05:18;97056.22;;;11.33;93.61
57232;BME280;43488;46.934;8.276;2022-10-13T03:07:45;97056.84;;;11.35;93.29
57232;BME280;43488;46.934;8.276;2022-10-13T03:10:13;97048.53;;;11.38;93.32
57232;BME280;43488;46.934;8.276;2022-10-13T03:12:41;97057.66;;;11.43;93.23
57232;BME280;43488;46.934;8.276;2022-10-13T03:15:08;97059.28;;;11.50;93.68
57232;BME280;43488;46.934;8.276;2022-10-13T03:17:36;97057.66;;;11.43;93.80
57232;BME280;43488;46.934;8.276;2022-10-13T03:20:08;97058.91;;;11.47;93.72
57232;BME280;43488;46.934;8.276;2022-10-13T03:22:35;97061.53;;;11.47;93.70
57232;BME280;43488;46.934;8.276;2022-10-13T03:25:04;97063.19;;;11.54;94.21
57232;BME280;43488;46.934;8.276;2022-10-13T03:27:33;97066.81;;;11.60;93.73
57232;BME280;43488;46.934;8.276;2022-10-13T03:30:01;97069.69;;;11.65;93.97
57232;BME280;43488;46.934;8.276;2022-10-13T03:32:30;97073.13;;;11.65;94.04
57232;BME280;43488;46.934;8.276;2022-10-13T03:34:57;97070.28;;;11.67;94.01
57232;BME280;43488;46.934;8.276;2022-10-13T03:37:25;97072.72;;;11.62;94.46
57232;BME280;43488;46.934;8.276;2022-10-13T03:39:54;97064.19;;;11.66;95.28
57232;BME280;43488;46.934;8.276;2022-10-13T03:42:23;97062.97;;;11.69;95.85
57232;BME280;43488;46.934;8.276;2022-10-13T03:44:50;97071.53;;;11.71;95.37
57232;BME280;43488;46.934;8.276;2022-10-13T03:47:19;97069.28;;;11.75;95.51
57232;BME280;43488;46.934;8.276;2022-10-13T03:49:46;97067.06;;;11.78;95.26
57232;BME280;43488;46.934;8.276;2022-10-13T03:52:13;97066.44;;;11.69;96.10
57232;BME280;43488;46.934;8.276;2022-10-13T03:54:41;97056.53;;;11.72;96.19
57232;BME280;43488;46.934;8.276;2022-10-13T03:57:08;97068.66;;;11.66;96.86
57232;BME280;43488;46.934;8.276;2022-10-13T03:59:35;97064.44;;;11.72;97.30
57232;BME280;43488;46.934;8.276;2022-10-13T04:02:03;97059.97;;;11.72;97.52
57232;BME280;43488;46.934;8.276;2022-10-13T04:04:31;97067.03;;;11.65;97.59
57232;BME280;43488;46.934;8.276;2022-10-13T04:06:58;97065.81;;;11.61;97.07
57232;BME280;43488;46.934;8.276;2022-10-13T04:09:26;97063.00;;;11.62;96.92
57232;BME280;43488;46.934;8.276;2022-10-13T04:11:53;97065.19;;;11.59;96.66
57232;BME280;43488;46.934;8.276;2022-10-13T04:14:21;97057.88;;;11.48;97.37
57232;BME280;43488;46.934;8.276;2022-10-13T04:16:48;97063.38;;;11.53;97.29
57232;BME280;43488;46.934;8.276;2022-10-13T04:19:16;97065.19;;;11.59;96.80
57232;BME280;43488;46.934;8.276;2022-10-13T04:21:44;97064.59;;;11.57;96.77
57232;BME280;43488;46.934;8.276;2022-10-13T04:24:14;97071.91;;;11.55;96.93
57232;BME280;43488;46.934;8.276;2022-10-13T04:26:44;97064.56;;;11.44;96.92
57232;BME280;43488;46.934;8.276;2022-10-13T04:29:12;97065.75;;;11.34;97.99
57232;BME280;43488;46.934;8.276;2022-10-13T04:31:40;97059.03;;;11.25;99.13
57232;BME280;43488;46.934;8.276;2022-10-13T04:34:10;97054.16;;;11.22;100.00
57232;BME280;43488;46.934;8.276;2022-10-13T04:36:38;97045.44;;;11.22;100.00
57232;BME280;43488;46.934;8.276;2022-10-13T04:39:05;97056.41;;;11.25;100.00
57232;BME280;43488;46.934;8.276;2022-10-13T04:41:33;97046.25;;;11.22;100.00
57232;BME280;43488;46.934;8.276;2022-10-13T04:44:00;97051.13;;;11.32;100.00
57232;BME280;43488;46.934;8.276;2022-10-13T04:46:28;97045.66;;;11.33;100.00
57232;BME280;43488;46.934;8.276;2022-10-13T04:48:56;97040.81;;;11.37;100.00
57232;BME280;43488;46.934;8.276;2022-10-13T04:51:25;97035.75;;;11.42;100.00
57232;BME280;43488;46.934;8.276;2022-10-13T04:53:55;97036.59;;;11.49;100.00
57232;BME280;43488;46.934;8.276;2022-10-13T04:56:24;97033.75;;;11.51;100.00
57232;BME280;43488;46.934;8.276;2022-10-13T04:58:51;97031.34;;;11.56;100.00
57232;BME280;43488;46.934;8.276;2022-10-13T05:01:23;97023.63;;;11.54;100.00
57232;BME280;43488;46.934;8.276;2022-10-13T05:03:57;97027.88;;;11.49;100.00
57232;BME280;43488;46.934;8.276;2022-10-13T05:06:34;97027.44;;;11.52;100.00
57232;BME280;43488;46.934;8.276;2022-10-13T05:09:03;97025.44;;;11.54;100.00
57232;BME280;43488;46.934;8.276;2022-10-13T05:11:32;97032.94;;;11.57;100.00
57232;BME280;43488;46.934;8.276;2022-10-13T05:14:00;97026.06;;;11.62;100.00
57232;BME280;43488;46.934;8.276;2022-10-13T05:16:28;97028.91;;;11.67;100.00
57232;BME280;43488;46.934;8.276;2022-10-13T05:18:57;97027.88;;;11.68;100.00
57232;BME280;43488;46.934;8.276;2022-10-13T05:21:28;97024.84;;;11.65;100.00
57232;BME280;43488;46.934;8.276;2022-10-13T05:23:56;97031.75;;;11.73;100.00
57232;BME280;43488;46.934;8.276;2022-10-13T05:26:27;97021.22;;;11.73;100.00
57232;BME280;43488;46.934;8.276;2022-10-13T05:28:59;97035.22;;;11.73;100.00
57232;BME280;43488;46.934;8.276;2022-10-13T05:31:30;97023.84;;;11.66;100.00
57232;BME280;43488;46.934;8.276;2022-10-13T05:33:59;97026.06;;;11.69;100.00
57232;BME280;43488;46.934;8.276;2022-10-13T05:36:33;97023.84;;;11.73;100.00
57232;BME280;43488;46.934;8.276;2022-10-13T05:39:04;97011.25;;;11.68;100.00
57232;BME280;43488;46.934;8.276;2022-10-13T05:41:32;97020.59;;;11.71;100.00
57232;BME280;43488;46.934;8.276;2022-10-13T05:44:03;97015.31;;;11.57;100.00
57232;BME280;43488;46.934;8.276;2022-10-13T05:46:33;97027.25;;;11.47;100.00
57232;BME280;43488;46.934;8.276;2022-10-13T05:49:02;97027.25;;;11.60;100.00
57232;BME280;43488;46.934;8.276;2022-10-13T05:51:39;97025.66;;;11.65;100.00
57232;BME280;43488;46.934;8.276;2022-10-13T05:57:33;97020.59;;;11.64;100.00
57232;BME280;43488;46.934;8.276;2022-10-13T06:00:09;97023.84;;;11.73;100.00
57232;BME280;43488;46.934;8.276;2022-10-13T06:02:49;97036.03;;;11.74;100.00
57232;BME280;43488;46.934;8.276;2022-10-13T06:05:20;97023.84;;;11.79;100.00
57232;BME280;43488;46.934;8.276;2022-10-13T06:07:48;97018.59;;;11.86;100.00
57232;BME280;43488;46.934;8.276;2022-10-13T06:10:15;97021.84;;;11.94;100.00
57232;BME280;43488;46.934;8.276;2022-10-13T06:12:43;97015.97;;;11.92;100.00
57232;BME280;43488;46.934;8.276;2022-10-13T06:15:10;97022.44;;;11.96;100.00
57232;BME280;43488;46.934;8.276;2022-10-13T06:17:39;97015.56;;;11.89;100.00
57232;BME280;43488;46.934;8.276;2022-10-13T06:20:07;97019.63;;;11.91;100.00
57232;BME280;43488;46.934;8.276;2022-10-13T06:22:35;97026.88;;;11.76;100.00
57232;BME280;43488;46.934;8.276;2022-10-13T06:25:05;97019.19;;;11.75;100.00
57232;BME280;43488;46.934;8.276;2022-10-13T06:27:33;97017.16;;;11.77;100.00
57232;BME280;43488;46.934;8.276;2022-10-13T06:30:02;97014.97;;;11.80;100.00
57232;BME280;43488;46.934;8.276;2022-10-13T06:32:29;97014.75;;;11.82;100.00
57232;BME280;43488;46.934;8.276;2022-10-13T06:34:57;97023.03;;;11.79;100.00
57232;BME280;43488;46.934;8.276;2022-10-13T06:37:24;97019.19;;;11.75;100.00
57232;BME280;43488;46.934;8.276;2022-10-13T06:39:52;97026.47;;;11.79;100.00
57232;BME280;43488;46.934;8.276;2022-10-13T06:42:20;97026.47;;;11.79;100.00
57232;BME280;43488;46.934;8.276;2022-10-13T06:44:48;97036.47;;;11.84;100.00
57232;BME280;43488;46.934;8.276;2022-10-13T06:47:15;97020.00;;;11.88;100.00
57232;BME280;43488;46.934;8.276;2022-10-13T06:49:42;97024.72;;;12.00;100.00
57232;BME280;43488;46.934;8.276;2022-10-13T06:52:10;97026.72;;;11.98;100.00
57232;BME280;43488;46.934;8.276;2022-10-13T06:54:37;97034.63;;;11.98;100.00
57232;BME280;43488;46.934;8.276;2022-10-13T06:57:05;97036.88;;;12.01;100.00
57232;BME280;43488;46.934;8.276;2022-10-13T06:59:34;97043.56;;;12.03;100.00
57232;BME280;43488;46.934;8.276;2022-10-13T07:02:01;97038.91;;;12.12;100.00
57232;BME280;43488;46.934;8.276;2022-10-13T07:04:29;97034.03;;;12.22;100.00
57232;BME280;43488;46.934;8.276;2022-10-13T07:06:56;97030.56;;;12.15;100.00
57232;BME280;43488;46.934;8.276;2022-10-13T07:09:24;97020.00;;;12.21;100.00
57232;BME280;43488;46.934;8.276;2022-10-13T07:11:52;97027.34;;;12.26;100.00
57232;BME280;43488;46.934;8.276;2022-10-13T07:14:19;97022.22;;;12.24;99.94
57232;BME280;43488;46.934;8.276;2022-10-13T07:16:47;97012.47;;;12.32;99.19
57232;BME280;43488;46.934;8.276;2022-10-13T07:19:15;97010.88;;;12.37;99.86
57232;BME280;43488;46.934;8.276;2022-10-13T07:21:42;97012.47;;;12.45;99.30
57232;BME280;43488;46.934;8.276;2022-10-13T07:24:11;97014.69;;;12.48;99.54
57232;BME280;43488;46.934;8.276;2022-10-13T07:26:39;97014.91;;;12.46;99.09
57232;BME280;43488;46.934;8.276;2022-10-13T07:29:07;97006.38;;;12.44;99.71
57232;BME280;43488;46.934;8.276;2022-10-13T07:31:35;97005.38;;;12.32;100.00
57232;BME280;43488;46.934;8.276;2022-10-13T07:34:02;97004.56;;;12.38;100.00
57232;BME280;43488;46.934;8.276;2022-10-13T07:36:31;97003.31;;;12.41;100.00
57232;BME280;43488;46.934;8.276;2022-10-13T07:39:01;97007.63;;;12.35;100.00
57232;BME280;43488;46.934;8.276;2022-10-13T07:41:29;97003.31;;;12.41;100.00
57232;BME280;43488;46.934;8.276;2022-10-13T07:43:56;96993.56;;;12.41;100.00
57232;BME280;43488;46.934;8.276;2022-10-13T07:46:24;96997.66;;;12.44;99.66
57232;BME280;43488;46.934;8.276;2022-10-13T07:48:52;96999.66;;;12.48;99.81
57232;BME280;43488;46.934;8.276;2022-10-13T07:51:21;97001.69;;;12.46;100.00
57232;BME280;43488;46.934;8.276;2022-10-13T07:53:48;96993.34;;;12.49;100.00
57232;BME280;43488;46.934;8.276;2022-10-13T07:56:16;96987.66;;;12.52;100.00
57232;BME280;43488;46.934;8.276;2022-10-13T07:58:45;96992.53;;;12.49;100.00
57232;BME280;43488;46.934;8.276;2022-10-13T08:01:14;96994.38;;;12.55;99.76
57232;BME280;43488;46.934;8.276;2022-10-13T08:03:43;96995.19;;;12.56;99.94
57232;BME280;43488;46.934;8.276;2022-10-13T08:06:11;96989.69;;;12.50;100.00
57232;BME280;43488;46.934;8.276;2022-10-13T08:08:38;96986.22;;;12.57;100.00
57232;BME280;43488;46.934;8.276;2022-10-13T08:11:11;96988.84;;;12.63;99.21
57232;BME280;43488;46.934;8.276;2022-10-13T08:13:40;96991.06;;;12.66;98.75
57232;BME280;43488;46.934;8.276;2022-10-13T08:16:09;96991.81;;;12.87;97.77
57232;BME280;43488;46.934;8.276;2022-10-13T08:18:38;96987.09;;;12.95;96.38
57232;BME280;43488;46.934;8.276;2022-10-13T08:21:08;96983.13;;;13.18;95.48
57232;BME280;43488;46.934;8.276;2022-10-13T08:23:38;96990.19;;;13.37;94.36
57232;BME280;43488;46.934;8.276;2022-10-13T08:26:31;96983.75;;;13.51;93.56
57232;BME280;43488;46.934;8.276;2022-10-13T08:28:59;96975.91;;;13.70;93.09
57232;BME280;43488;46.934;8.276;2022-10-13T08:31:26;96965.75;;;13.66;94.42
57232;BME280;43488;46.934;8.276;2022-10-13T08:33:54;96974.25;;;13.75;95.02
57232;BME280;43488;46.934;8.276;2022-10-13T08:36:21;96961.28;;;13.67;93.36
57232;BME280;43488;46.934;8.276;2022-10-13T08:38:50;96959.75;;;13.78;92.88
57232;BME280;43488;46.934;8.276;2022-10-13T08:41:27;96955.72;;;13.75;91.64
57232;BME280;43488;46.934;8.276;2022-10-13T08:44:54;96958.00;;;13.72;92.15
57232;BME280;43488;46.934;8.276;2022-10-13T08:50:09;96947.81;;;13.69;91.65
57232;BME280;43488;46.934;8.276;2022-10-13T08:58:13;96956.03;;;13.60;93.95
57232;BME280;43488;46.934;8.276;2022-10-13T09:00:44;96959.88;;;13.64;94.78
57232;BME280;43488;46.934;8.276;2022-10-13T09:03:27;96958.94;;;13.77;94.15
57232;BME280;43488;46.934;8.276;2022-10-13T09:08:51;96948.25;;;13.90;91.34
57232;BME280;43488;46.934;8.276;2022-10-13T09:11:20;96950.03;;;13.97;91.14
57232;BME280;43488;46.934;8.276;2022-10-13T09:13:47;96952.09;;;13.94;91.16
57232;BME280;43488;46.934;8.276;2022-10-13T09:16:14;96956.03;;;14.10;90.76
57232;BME280;43488;46.934;8.276;2022-10-13T09:18:42;96945.28;;;14.23;89.67
57232;BME280;43488;46.934;8.276;2022-10-13T09:21:24;96945.59;;;14.34;89.13
57232;BME280;43488;46.934;8.276;2022-10-13T09:23:52;96953.09;;;14.37;89.38
57232;BME280;43488;46.934;8.276;2022-10-13T09:26:24;96962.78;;;14.49;88.74
57232;BME280;43488;46.934;8.276;2022-10-13T09:28:52;96950.28;;;14.32;89.64
57232;BME280;43488;46.934;8.276;2022-10-13T09:31:28;96948.38;;;14.45;90.89
57232;BME280;43488;46.934;8.276;2022-10-13T09:37:02;96954.59;;;14.51;91.03
57232;BME280;43488;46.934;8.276;2022-10-13T09:39:32;96968.75;;;14.63;91.41
57232;BME280;43488;46.934;8.276;2022-10-13T09:42:22;96958.94;;;14.82;90.61
57232;BME280;43488;46.934;8.276;2022-10-13T09:45:16;96953.91;;;14.92;89.32
57232;BME280;43488;46.934;8.276;2022-10-13T09:47:54;96966.47;;;15.27;86.69
57232;BME280;43488;46.934;8.276;2022-10-13T09:50:29;96963.25;;;15.55;85.50
57232;BME280;43488;46.934;8.276;2022-10-13T09:53:45;96955.72;;;15.93;84.48
57232;BME280;43488;46.934;8.276;2022-10-13T09:56:34;96960.56;;;15.97;82.14
57232;BME280;43488;46.934;8.276;2022-10-13T09:59:29;96948.91;;;16.09;81.25
57232;BME280;43488;46.934;8.276;2022-10-13T10:02:19;96952.69;;;16.25;80.66
57232;BME280;43488;46.934;8.276;2022-10-13T10:04:49;96962.50;;;16.36;80.39
57232;BME280;43488;46.934;8.276;2022-10-13T10:07:25;96973.38;;;16.46;80.85
57232;BME280;43488;46.934;8.276;2022-10-13T10:10:00;96965.03;;;16.66;80.58
57232;BME280;43488;46.934;8.276;2022-10-13T10:12:30;96958.41;;;16.81;78.92
57232;BME280;43488;46.934;8.276;2022-10-13T10:15:00;96966.94;;;16.94;78.19
57232;BME280;43488;46.934;8.276;2022-10-13T10:17:48;96960.88;;;16.59;81.98
57232;BME280;43488;46.934;8.276;2022-10-13T10:20:41;96962.84;;;16.52;81.33
57232;BME280;43488;46.934;8.276;2022-10-13T10:26:34;96971.50;;;16.59;80.78
57232;BME280;43488;46.934;8.276;2022-10-13T10:41:07;96959.28;;;16.34;78.31
57232;BME280;43488;46.934;8.276;2022-10-13T10:43:53;96959.41;;;16.28;78.75
57232;BME280;43488;46.934;8.276;2022-10-13T10:46:36;96952.47;;;16.27;79.09
57232;BME280;43488;46.934;8.276;2022-10-13T10:49:22;96949.56;;;16.40;78.50
57232;BME280;43488;46.934;8.276;2022-10-13T10:51:51;96948.22;;;16.37;78.66
57232;BME280;43488;46.934;8.276;2022-10-13T10:57:39;96933.41;;;16.18;77.70
57232;BME280;43488;46.934;8.276;2022-10-13T11:00:17;96931.22;;;16.27;77.00
57232;BME280;43488;46.934;8.276;2022-10-13T11:03:16;96933.88;;;16.27;76.36
57232;BME280;43488;46.934;8.276;2022-10-13T11:06:25;96934.09;;;16.25;76.83
57232;BME280;43488;46.934;8.276;2022-10-13T11:08:58;96921.97;;;16.17;77.18
57232;BME280;43488;46.934;8.276;2022-10-13T11:27:25;96904.84;;;16.48;75.36
57232;BME280;43488;46.934;8.276;2022-10-13T11:29:56;96904.06;;;16.88;74.74
57232;BME280;43488;46.934;8.276;2022-10-13T11:40:56;96891.63;;;17.84;69.60
57232;BME280;43488;46.934;8.276;2022-10-13T11:46:59;96888.22;;;18.28;67.35
57232;BME280;43488;46.934;8.276;2022-10-13T11:49:47;96878.94;;;18.74;66.04
57232;BME280;43488;46.934;8.276;2022-10-13T11:53:13;96873.06;;;18.72;65.58
57232;BME280;43488;46.934;8.276;2022-10-13T11:55:54;96863.16;;;18.94;66.03
57232;BME280;43488;46.934;8.276;2022-10-13T11:58:30;96858.44;;;19.66;64.01
57232;BME280;43488;46.934;8.276;2022-10-13T12:01:01;96847.19;;;19.96;62.90
57232;BME280;43488;46.934;8.276;2022-10-13T12:03:35;96850.81;;;20.27;60.37
57232;BME280;43488;46.934;8.276;2022-10-13T12:06:29;96841.41;;;20.14;60.77
57232;BME280;43488;46.934;8.276;2022-10-13T12:09:16;96827.75;;;20.73;59.82
57232;BME280;43488;46.934;8.276;2022-10-13T12:11:44;96816.22;;;20.62;59.93
57232;BME280;43488;46.934;8.276;2022-10-13T12:14:30;96814.88;;;20.60;58.96
57232;BME280;43488;46.934;8.276;2022-10-13T12:16:59;96819.94;;;20.56;58.79
57232;BME280;43488;46.934;8.276;2022-10-13T12:19:30;96818.03;;;20.47;59.13
57232;BME280;43488;46.934;8.276;2022-10-13T12:22:00;96803.16;;;20.91;59.24
57232;BME280;43488;46.934;8.276;2022-10-13T12:24:29;96806.09;;;20.90;58.31
57232;BME280;43488;46.934;8.276;2022-10-13T12:26:57;96807.19;;;20.99;58.34
57232;BME280;43488;46.934;8.276;2022-10-13T12:29:27;96803.19;;;21.17;56.78
57232;BME280;43488;46.934;8.276;2022-10-13T12:31:55;96801.88;;;21.29;57.02
57232;BME280;43488;46.934;8.276;2022-10-13T12:34:30;96799.44;;;21.18;57.57
57232;BME280;43488;46.934;8.276;2022-10-13T12:37:34;96794.09;;;21.28;57.29
57232;BME280;43488;46.934;8.276;2022-10-13T12:40:04;96794.38;;;21.21;58.03
57232;BME280;43488;46.934;8.276;2022-10-13T12:42:34;96791.94;;;21.15;58.00
57232;BME280;43488;46.934;8.276;2022-10-13T12:45:02;96799.47;;;21.28;57.81
57232;BME280;43488;46.934;8.276;2022-10-13T12:47:47;96798.09;;;20.85;58.60
57232;BME280;43488;46.934;8.276;2022-10-13T12:53:18;96792.47;;;20.86;57.57
57232;BME280;43488;46.934;8.276;2022-10-13T12:55:54;96792.56;;;20.34;59.28
57232;BME280;43488;46.934;8.276;2022-10-13T12:58:30;96785.44;;;20.65;59.48
57232;BME280;43488;46.934;8.276;2022-10-13T13:03:43;96784.97;;;20.98;59.02
57232;BME280;43488;46.934;8.276;2022-10-13T13:06:24;96776.97;;;21.14;58.35
57232;BME280;43488;46.934;8.276;2022-10-13T13:09:23;96778.53;;;20.69;58.25
57232;BME280;43488;46.934;8.276;2022-10-13T13:14:49;96785.47;;;20.75;59.20
57232;BME280;43488;46.934;8.276;2022-10-13T13:19:51;96765.00;;;22.17;58.71
57232;BME280;43488;46.934;8.276;2022-10-13T13:22:20;96762.75;;;22.39;57.11
57232;BME280;43488;46.934;8.276;2022-10-13T13:24:50;96774.44;;;22.63;56.38
57232;BME280;43488;46.934;8.276;2022-10-13T13:29:53;96774.78;;;22.52;51.77
57232;BME280;43488;46.934;8.276;2022-10-13T13:32:24;96776.19;;;22.34;52.47
57232;BME280;43488;46.934;8.276;2022-10-13T13:34:53;96771.81;;;22.53;52.52
57232;BME280;43488;46.934;8.276;2022-10-13T13:37:43;96760.06;;;22.44;52.77
57232;BME280;43488;46.934;8.276;2022-10-13T13:40:20;96759.41;;;22.08;54.68
57232;BME280;43488;46.934;8.276;2022-10-13T13:42:48;96759.19;;;21.89;55.92
57232;BME280;43488;46.934;8.276;2022-10-13T13:45:17;96767.28;;;21.64;56.46
57232;BME280;43488;46.934;8.276;2022-10-13T13:47:46;96763.34;;;21.31;57.61
57232;BME280;43488;46.934;8.276;2022-10-13T13:50:26;96760.34;;;21.07;59.12
57232;BME280;43488;46.934;8.276;2022-10-13T13:52:55;96759.00;;;20.79;59.91
57232;BME280;43488;46.934;8.276;2022-10-13T13:55:23;96753.91;;;20.67;59.39
57232;BME280;43488;46.934;8.276;2022-10-13T13:57:54;96744.22;;;20.45;59.82
57232;BME280;43488;46.934;8.276;2022-10-13T14:00:23;96739.38;;;20.37;61.43
57232;BME280;43488;46.934;8.276;2022-10-13T14:02:50;96753.53;;;20.38;61.33
57232;BME280;43488;46.934;8.276;2022-10-13T14:05:18;96750.56;;;20.29;61.18
57232;BME280;43488;46.934;8.276;2022-10-13T14:07:45;96751.28;;;19.99;62.14
57232;BME280;43488;46.934;8.276;2022-10-13T14:10:13;96751.34;;;19.62;63.50
57232;BME280;43488;46.934;8.276;2022-10-13T14:12:41;96749.94;;;19.54;64.77
57232;BME280;43488;46.934;8.276;2022-10-13T14:15:09;96746.41;;;19.39;63.62
57232;BME280;43488;46.934;8.276;2022-10-13T14:17:38;96756.47;;;19.31;64.36
57232;BME280;43488;46.934;8.276;2022-10-13T14:20:06;96759.84;;;19.17;63.80
57232;BME280;43488;46.934;8.276;2022-10-13T14:22:35;96750.31;;;18.94;65.03
57232;BME280;43488;46.934;8.276;2022-10-13T14:25:04;96757.09;;;18.74;66.51
57232;BME280;43488;46.934;8.276;2022-10-13T14:27:33;96764.03;;;18.54;68.53
57232;BME280;43488;46.934;8.276;2022-10-13T14:30:06;96755.66;;;18.40;69.13
57232;BME280;43488;46.934;8.276;2022-10-13T14:32:36;96747.28;;;18.31;69.86
57232;BME280;43488;46.934;8.276;2022-10-13T14:35:04;96737.88;;;18.24;71.53
57232;BME280;43488;46.934;8.276;2022-10-13T14:37:33;96738.44;;;18.26;71.81
57232;BME280;43488;46.934;8.276;2022-10-13T14:40:01;96742.69;;;18.27;72.17
57232;BME280;43488;46.934;8.276;2022-10-13T14:42:30;96757.63;;;18.28;71.68
57232;BME280;43488;46.934;8.276;2022-10-13T14:44:57;96744.81;;;18.25;71.90
57232;BME280;43488;46.934;8.276;2022-10-13T14:47:25;96751.44;;;18.00;71.90
57232;BME280;43488;46.934;8.276;2022-10-13T14:49:53;96751.97;;;17.97;72.23
57232;BME280;43488;46.934;8.276;2022-10-13T14:52:21;96757.00;;;17.94;72.65